createdAt,value
2018-08-20T00:00:10.771Z,22.44
2018-08-20T00:01:10.832Z,22.50
2018-08-20T00:02:10.904Z,22.48
2018-08-20T00:03:10.960Z,22.50
2018-08-20T00:04:11.025Z,22.55
2018-08-20T00:05:11.112Z,22.41
2018-08-20T00:06:11.156Z,22.48
2018-08-20T00:07:11.226Z,22.50
2018-08-20T00:08:11.297Z,22.39
2018-08-20T00:09:11.362Z,22.44
2018-08-20T00:10:11.436Z,22.51
2018-08-20T00:11:11.497Z,22.36
2018-08-20T00:12:11.561Z,22.47
2018-08-20T00:13:11.625Z,22.48
2018-08-20T00:14:11.689Z,22.45
2018-08-20T00:15:11.765Z,22.33
2018-08-20T00:16:11.829Z,22.48
2018-08-20T00:17:11.893Z,22.35
2018-08-20T00:18:11.957Z,22.36
2018-08-20T00:19:12.022Z,22.36
2018-08-20T00:20:12.197Z,22.32
2018-08-20T00:21:12.157Z,22.35
2018-08-20T00:22:12.221Z,22.38
2018-08-20T00:23:12.289Z,22.29
2018-08-20T00:24:12.357Z,22.35
2018-08-20T00:25:12.437Z,22.29
2018-08-20T00:26:12.493Z,22.25
2018-08-20T00:27:12.555Z,22.26
2018-08-20T00:28:12.621Z,22.28
2018-08-20T00:29:12.693Z,22.28
2018-08-20T00:30:12.765Z,22.36
2018-08-20T00:31:12.830Z,22.30
2018-08-20T00:32:12.885Z,22.30
2018-08-20T00:33:12.954Z,22.28
2018-08-20T00:34:13.021Z,22.36
2018-08-20T00:35:13.209Z,22.36
2018-08-20T00:36:13.153Z,22.32
2018-08-20T00:37:13.222Z,22.33
2018-08-20T00:38:13.286Z,22.35
2018-08-20T00:39:13.354Z,22.26
2018-08-20T00:40:13.426Z,22.28
2018-08-20T00:41:13.494Z,22.25
2018-08-20T00:42:13.550Z,22.29
2018-08-20T00:43:13.619Z,22.25
2018-08-20T00:44:13.686Z,22.33
2018-08-20T00:45:13.758Z,22.29
2018-08-20T00:46:13.826Z,22.25
2018-08-20T00:47:13.886Z,22.23
2018-08-20T00:48:13.950Z,22.14
2018-08-20T00:49:14.018Z,22.15
2018-08-20T00:50:14.102Z,22.18
2018-08-20T00:51:14.150Z,22.14
2018-08-20T00:52:14.219Z,22.20
2018-08-20T00:53:14.283Z,22.18
2018-08-20T00:54:14.350Z,22.15
2018-08-20T00:55:14.427Z,22.17
2018-08-20T00:56:14.491Z,22.15
2018-08-20T00:57:14.550Z,22.14
2018-08-20T00:58:14.615Z,22.15
2018-08-20T00:59:14.674Z,22.13
2018-08-20T01:00:14.760Z,22.15
2018-08-20T01:01:14.827Z,22.15
2018-08-20T01:02:14.887Z,22.15
2018-08-20T01:03:14.946Z,22.18
2018-08-20T01:04:15.015Z,22.13
2018-08-20T01:05:15.243Z,22.02
2018-08-20T01:06:15.143Z,22.13
2018-08-20T01:07:15.215Z,22.08
2018-08-20T01:08:15.279Z,22.10
2018-08-20T01:09:15.348Z,22.06
2018-08-20T01:10:15.419Z,22.06
2018-08-20T01:11:15.487Z,22.08
2018-08-20T01:12:15.547Z,22.02
2018-08-20T01:13:15.615Z,22.04
2018-08-20T01:14:15.679Z,22.04
2018-08-20T01:15:15.752Z,22.02
2018-08-20T01:16:15.819Z,22.02
2018-08-20T01:17:15.881Z,21.99
2018-08-20T01:18:15.944Z,21.98
2018-08-20T01:19:16.015Z,21.98
2018-08-20T01:20:16.243Z,21.99
2018-08-20T01:21:16.148Z,21.92
2018-08-20T01:22:16.211Z,21.95
2018-08-20T01:23:16.275Z,21.96
2018-08-20T01:24:16.348Z,21.93
2018-08-20T01:25:16.416Z,21.89
2018-08-20T01:26:16.484Z,21.91
2018-08-20T01:27:16.543Z,21.95
2018-08-20T01:28:16.608Z,21.91
2018-08-20T01:29:16.675Z,21.92
2018-08-20T01:30:16.748Z,21.91
2018-08-20T01:31:16.816Z,21.83
2018-08-20T01:32:16.876Z,21.89
2018-08-20T01:33:16.939Z,21.83
2018-08-20T01:34:17.008Z,21.85
2018-08-20T01:35:17.229Z,21.92
2018-08-20T01:36:17.140Z,21.88
2018-08-20T01:37:17.208Z,21.92
2018-08-20T01:38:17.273Z,21.83
2018-08-20T01:39:17.339Z,21.91
2018-08-20T01:40:17.412Z,21.82
2018-08-20T01:41:17.480Z,21.89
2018-08-20T01:42:17.540Z,21.79
2018-08-20T01:43:17.604Z,21.77
2018-08-20T01:44:17.672Z,21.79
2018-08-20T01:45:17.747Z,21.91
2018-08-20T01:46:17.817Z,21.85
2018-08-20T01:47:17.868Z,21.75
2018-08-20T01:48:17.936Z,21.76
2018-08-20T01:49:18.004Z,21.77
2018-08-20T01:50:18.225Z,21.76
2018-08-20T01:51:18.136Z,21.79
2018-08-20T01:52:18.200Z,21.79
2018-08-20T01:53:18.268Z,21.75
2018-08-20T01:54:18.332Z,21.73
2018-08-20T01:55:18.404Z,21.76
2018-08-20T01:56:18.477Z,21.80
2018-08-20T01:57:18.532Z,21.76
2018-08-20T01:58:18.601Z,21.77
2018-08-20T01:59:18.664Z,21.62
2018-08-20T02:00:18.737Z,21.67
2018-08-20T02:01:18.804Z,21.64
2018-08-20T02:02:18.865Z,21.72
2018-08-20T02:03:18.928Z,21.62
2018-08-20T02:04:18.997Z,21.69
2018-08-20T02:05:19.068Z,21.67
2018-08-20T02:06:19.136Z,21.70
2018-08-20T02:07:19.201Z,21.70
2018-08-20T02:08:19.266Z,21.69
2018-08-20T02:09:19.333Z,21.69
2018-08-20T02:10:19.405Z,21.64
2018-08-20T02:11:19.472Z,21.66
2018-08-20T02:12:19.529Z,21.73
2018-08-20T02:13:19.593Z,21.75
2018-08-20T02:14:19.667Z,21.77
2018-08-20T02:15:19.733Z,21.82
2018-08-20T02:16:19.798Z,21.75
2018-08-20T02:17:19.861Z,21.70
2018-08-20T02:18:19.925Z,21.70
2018-08-20T02:19:19.989Z,21.73
2018-08-20T02:20:20.068Z,21.70
2018-08-20T02:21:20.129Z,21.62
2018-08-20T02:22:20.189Z,21.64
2018-08-20T02:23:20.257Z,21.70
2018-08-20T02:24:20.321Z,21.67
2018-08-20T02:25:20.405Z,21.75
2018-08-20T02:26:20.466Z,21.60
2018-08-20T02:27:20.522Z,21.54
2018-08-20T02:28:20.590Z,21.57
2018-08-20T02:29:20.653Z,21.61
2018-08-20T02:30:20.726Z,21.58
2018-08-20T02:31:20.794Z,21.46
2018-08-20T02:32:20.854Z,21.54
2018-08-20T02:33:20.918Z,21.48
2018-08-20T02:34:20.986Z,21.50
2018-08-20T02:35:21.059Z,21.54
2018-08-20T02:36:21.126Z,21.39
2018-08-20T02:37:21.186Z,21.52
2018-08-20T02:38:21.250Z,21.42
2018-08-20T02:39:21.318Z,21.50
2018-08-20T02:40:21.390Z,21.43
2018-08-20T02:41:21.454Z,21.39
2018-08-20T02:42:21.514Z,21.43
2018-08-20T02:43:21.582Z,21.35
2018-08-20T02:44:21.646Z,21.37
2018-08-20T02:45:21.718Z,21.36
2018-08-20T02:46:21.787Z,21.32
2018-08-20T02:47:21.846Z,21.20
2018-08-20T02:48:21.910Z,21.24
2018-08-20T02:49:21.978Z,21.24
2018-08-20T02:50:22.051Z,21.15
2018-08-20T02:51:22.120Z,21.06
2018-08-20T02:52:22.183Z,21.14
2018-08-20T02:53:22.242Z,21.03
2018-08-20T02:54:22.311Z,21.06
2018-08-20T02:55:22.578Z,20.96
2018-08-20T02:56:22.443Z,20.97
2018-08-20T02:57:22.507Z,20.82
2018-08-20T02:58:22.575Z,20.82
2018-08-20T02:59:22.639Z,20.75
2018-08-20T03:00:22.715Z,20.78
2018-08-20T03:01:22.779Z,20.67
2018-08-20T03:02:22.839Z,20.74
2018-08-20T03:03:22.903Z,20.69
2018-08-20T03:04:22.971Z,20.67
2018-08-20T03:05:23.044Z,20.69
2018-08-20T03:06:23.107Z,20.63
2018-08-20T03:07:23.167Z,20.60
2018-08-20T03:08:23.235Z,20.60
2018-08-20T03:09:23.299Z,20.59
2018-08-20T03:10:23.383Z,20.56
2018-08-20T03:11:23.431Z,20.52
2018-08-20T03:12:23.499Z,20.56
2018-08-20T03:13:23.563Z,20.60
2018-08-20T03:14:23.631Z,20.44
2018-08-20T03:15:23.711Z,20.44
2018-08-20T03:16:23.791Z,20.50
2018-08-20T03:17:23.842Z,20.37
2018-08-20T03:18:23.892Z,20.39
2018-08-20T03:19:23.960Z,20.34
2018-08-20T03:20:24.032Z,20.36
2018-08-20T03:21:24.100Z,20.36
2018-08-20T03:22:24.156Z,20.34
2018-08-20T03:23:24.219Z,20.29
2018-08-20T03:24:24.292Z,20.39
2018-08-20T03:25:24.362Z,20.28
2018-08-20T03:26:24.428Z,20.41
2018-08-20T03:27:24.488Z,20.32
2018-08-20T03:28:24.552Z,20.32
2018-08-20T03:29:24.620Z,20.37
2018-08-20T03:30:24.692Z,20.34
2018-08-20T03:31:24.757Z,20.41
2018-08-20T03:32:24.816Z,20.32
2018-08-20T03:33:24.934Z,20.47
2018-08-20T03:34:24.948Z,20.50
2018-08-20T03:35:25.021Z,20.43
2018-08-20T03:36:25.085Z,20.55
2018-08-20T03:37:25.145Z,20.48
2018-08-20T03:38:25.213Z,20.52
2018-08-20T03:39:25.313Z,20.50
2018-08-20T03:40:25.544Z,20.47
2018-08-20T03:41:25.413Z,20.58
2018-08-20T03:42:25.473Z,20.58
2018-08-20T03:43:25.541Z,20.56
2018-08-20T03:44:25.605Z,20.48
2018-08-20T03:45:25.677Z,20.56
2018-08-20T03:46:25.745Z,20.47
2018-08-20T03:47:25.797Z,20.47
2018-08-20T03:48:25.869Z,20.47
2018-08-20T03:49:25.933Z,20.48
2018-08-20T03:50:26.005Z,20.50
2018-08-20T03:51:26.073Z,20.44
2018-08-20T03:52:26.133Z,20.48
2018-08-20T03:53:26.198Z,20.52
2018-08-20T03:54:26.264Z,20.56
2018-08-20T03:55:26.337Z,20.47
2018-08-20T03:56:26.401Z,20.47
2018-08-20T03:57:26.461Z,20.50
2018-08-20T03:58:26.526Z,20.50
2018-08-20T03:59:26.596Z,20.55
2018-08-20T04:00:26.665Z,20.55
2018-08-20T04:01:26.729Z,20.52
2018-08-20T04:02:26.793Z,20.48
2018-08-20T04:03:26.853Z,20.51
2018-08-20T04:04:26.921Z,20.32
2018-08-20T04:05:26.994Z,20.29
2018-08-20T04:06:27.078Z,20.34
2018-08-20T04:07:27.124Z,20.40
2018-08-20T04:08:27.186Z,20.43
2018-08-20T04:09:27.250Z,20.39
2018-08-20T04:10:27.313Z,20.28
2018-08-20T04:11:27.413Z,20.32
2018-08-20T04:12:27.448Z,20.34
2018-08-20T04:13:27.514Z,20.32
2018-08-20T04:14:27.581Z,20.40
2018-08-20T04:15:27.651Z,20.32
2018-08-20T04:16:27.725Z,20.37
2018-08-20T04:17:27.782Z,20.34
2018-08-20T04:18:27.842Z,20.32
2018-08-20T04:19:27.909Z,20.34
2018-08-20T04:20:27.974Z,20.34
2018-08-20T04:21:28.045Z,20.36
2018-08-20T04:22:28.110Z,20.24
2018-08-20T04:23:28.170Z,20.31
2018-08-20T04:24:28.234Z,20.22
2018-08-20T04:25:28.302Z,20.21
2018-08-20T04:26:28.370Z,20.29
2018-08-20T04:27:28.438Z,20.22
2018-08-20T04:28:28.498Z,20.31
2018-08-20T04:29:28.562Z,20.24
2018-08-20T04:30:28.639Z,20.29
2018-08-20T04:31:28.698Z,20.29
2018-08-20T04:32:28.770Z,20.18
2018-08-20T04:33:28.827Z,20.16
2018-08-20T04:34:28.891Z,20.24
2018-08-20T04:35:28.956Z,20.24
2018-08-20T04:36:29.157Z,20.16
2018-08-20T04:37:29.094Z,20.22
2018-08-20T04:38:29.154Z,20.22
2018-08-20T04:39:29.235Z,20.24
2018-08-20T04:40:29.298Z,20.19
2018-08-20T04:41:29.358Z,20.21
2018-08-20T04:42:29.423Z,20.25
2018-08-20T04:43:29.482Z,20.22
2018-08-20T04:44:29.546Z,20.29
2018-08-20T04:45:29.614Z,20.28
2018-08-20T04:46:29.687Z,20.29
2018-08-20T04:47:29.750Z,20.32
2018-08-20T04:48:29.810Z,20.25
2018-08-20T04:49:29.875Z,20.37
2018-08-20T04:50:30.212Z,20.32
2018-08-20T04:51:30.235Z,20.36
2018-08-20T04:52:30.082Z,20.34
2018-08-20T04:53:30.139Z,20.34
2018-08-20T04:54:30.203Z,20.26
2018-08-20T04:55:30.267Z,20.29
2018-08-20T04:56:30.343Z,20.31
2018-08-20T04:57:30.407Z,20.40
2018-08-20T04:58:30.467Z,20.34
2018-08-20T04:59:30.531Z,20.36
2018-08-20T05:00:30.599Z,20.32
2018-08-20T05:01:30.671Z,20.37
2018-08-20T05:02:30.736Z,20.39
2018-08-20T05:03:30.795Z,20.37
2018-08-20T05:04:30.862Z,20.41
2018-08-20T05:05:30.927Z,20.50
2018-08-20T05:06:31.000Z,20.37
2018-08-20T05:07:31.067Z,20.48
2018-08-20T05:08:31.124Z,20.44
2018-08-20T05:09:31.190Z,20.32
2018-08-20T05:10:31.255Z,20.32
2018-08-20T05:11:31.498Z,20.36
2018-08-20T05:12:31.392Z,20.34
2018-08-20T05:13:31.464Z,20.44
2018-08-20T05:14:31.515Z,20.44
2018-08-20T05:15:31.585Z,20.41
2018-08-20T05:16:31.658Z,20.40
2018-08-20T05:17:31.725Z,20.37
2018-08-20T05:18:31.779Z,20.36
2018-08-20T05:19:31.848Z,20.37
2018-08-20T05:20:31.911Z,20.36
2018-08-20T05:21:31.984Z,20.44
2018-08-20T05:22:32.056Z,20.37
2018-08-20T05:23:32.108Z,20.44
2018-08-20T05:24:32.176Z,20.50
2018-08-20T05:25:32.244Z,20.52
2018-08-20T05:26:32.472Z,20.43
2018-08-20T05:27:32.373Z,20.59
2018-08-20T05:28:32.444Z,20.59
2018-08-20T05:29:32.579Z,20.65
2018-08-20T05:30:32.568Z,20.59
2018-08-20T05:31:32.640Z,20.56
2018-08-20T05:32:32.715Z,20.66
2018-08-20T05:33:32.768Z,20.59
2018-08-20T05:34:32.832Z,20.62
2018-08-20T05:35:32.904Z,20.60
2018-08-20T05:36:32.981Z,20.67
2018-08-20T05:37:33.036Z,20.66
2018-08-20T05:38:33.097Z,20.59
2018-08-20T05:39:33.160Z,20.62
2018-08-20T05:40:33.228Z,20.66
2018-08-20T05:41:33.317Z,20.59
2018-08-20T05:42:33.364Z,20.60
2018-08-20T05:43:33.425Z,20.65
2018-08-20T05:44:33.494Z,20.67
2018-08-20T05:45:33.561Z,20.72
2018-08-20T05:46:33.628Z,20.72
2018-08-20T05:47:33.693Z,20.69
2018-08-20T05:48:33.753Z,20.70
2018-08-20T05:49:33.820Z,20.74
2018-08-20T05:50:33.885Z,20.66
2018-08-20T05:51:33.957Z,20.72
2018-08-20T05:52:34.103Z,20.75
2018-08-20T05:53:34.086Z,20.74
2018-08-20T05:54:34.149Z,20.69
2018-08-20T05:55:34.217Z,20.70
2018-08-20T05:56:34.389Z,20.67
2018-08-20T05:57:34.349Z,20.75
2018-08-20T05:58:34.417Z,20.72
2018-08-20T05:59:34.477Z,20.74
2018-08-20T06:00:34.545Z,20.74
2018-08-20T06:01:34.617Z,20.80
2018-08-20T06:02:34.677Z,20.81
2018-08-20T06:03:34.741Z,20.81
2018-08-20T06:04:34.809Z,20.82
2018-08-20T06:05:34.876Z,20.85
2018-08-20T06:06:34.945Z,20.92
2018-08-20T06:07:35.018Z,20.95
2018-08-20T06:08:35.074Z,20.99
2018-08-20T06:09:35.142Z,20.99
2018-08-20T06:10:35.202Z,21.07
2018-08-20T06:11:35.431Z,21.09
2018-08-20T06:12:35.334Z,20.99
2018-08-20T06:13:35.403Z,21.12
2018-08-20T06:14:35.466Z,21.09
2018-08-20T06:15:35.534Z,21.11
2018-08-20T06:16:35.609Z,21.14
2018-08-20T06:17:35.670Z,21.11
2018-08-20T06:18:35.730Z,21.12
2018-08-20T06:19:35.798Z,21.18
2018-08-20T06:20:35.862Z,21.11
2018-08-20T06:21:35.934Z,21.14
2018-08-20T06:22:36.016Z,21.20
2018-08-20T06:23:36.063Z,21.18
2018-08-20T06:24:36.126Z,21.25
2018-08-20T06:25:36.194Z,21.15
2018-08-20T06:26:36.259Z,21.24
2018-08-20T06:27:36.355Z,21.09
2018-08-20T06:28:36.420Z,21.14
2018-08-20T06:29:36.464Z,21.15
2018-08-20T06:30:36.523Z,21.09
2018-08-20T06:31:36.591Z,21.14
2018-08-20T06:32:36.663Z,21.11
2018-08-20T06:33:36.738Z,21.12
2018-08-20T06:34:36.787Z,21.14
2018-08-20T06:35:36.870Z,21.11
2018-08-20T06:36:36.929Z,21.15
2018-08-20T06:37:36.991Z,21.18
2018-08-20T06:38:37.073Z,21.17
2018-08-20T06:39:37.119Z,21.20
2018-08-20T06:40:37.183Z,21.18
2018-08-20T06:41:37.311Z,21.27
2018-08-20T06:42:37.343Z,21.20
2018-08-20T06:43:37.384Z,21.22
2018-08-20T06:44:37.448Z,21.18
2018-08-20T06:45:37.515Z,21.25
2018-08-20T06:46:37.579Z,21.32
2018-08-20T06:47:37.652Z,21.32
2018-08-20T06:48:37.745Z,21.32
2018-08-20T06:49:37.780Z,21.25
2018-08-20T06:50:37.844Z,21.21
2018-08-20T06:51:37.912Z,21.21
2018-08-20T06:52:37.984Z,21.17
2018-08-20T06:53:38.052Z,21.14
2018-08-20T06:54:38.134Z,21.24
2018-08-20T06:55:38.184Z,21.17
2018-08-20T06:56:38.240Z,21.22
2018-08-20T06:57:38.349Z,21.22
2018-08-20T06:58:38.372Z,21.17
2018-08-20T06:59:38.444Z,21.21
2018-08-20T07:00:38.512Z,21.29
2018-08-20T07:01:38.579Z,21.21
2018-08-20T07:02:38.644Z,21.20
2018-08-20T07:03:38.716Z,21.27
2018-08-20T07:04:38.772Z,21.27
2018-08-20T07:05:38.837Z,21.22
2018-08-20T07:06:38.904Z,21.21
2018-08-20T07:07:38.976Z,21.24
2018-08-20T07:08:39.040Z,21.22
2018-08-20T07:09:39.100Z,21.25
2018-08-20T07:10:39.168Z,21.37
2018-08-20T07:11:39.232Z,21.39
2018-08-20T07:12:39.340Z,21.39
2018-08-20T07:13:39.364Z,21.46
2018-08-20T07:14:39.433Z,21.46
2018-08-20T07:15:39.497Z,21.45
2018-08-20T07:16:39.566Z,21.51
2018-08-20T07:17:39.642Z,21.51
2018-08-20T07:18:39.700Z,21.54
2018-08-20T07:19:39.767Z,21.54
2018-08-20T07:20:39.829Z,21.54
2018-08-20T07:21:39.897Z,21.61
2018-08-20T07:22:40.007Z,21.57
2018-08-20T07:23:40.055Z,21.64
2018-08-20T07:24:40.093Z,21.62
2018-08-20T07:25:40.160Z,21.67
2018-08-20T07:26:40.224Z,21.60
2018-08-20T07:27:40.293Z,21.67
2018-08-20T07:28:40.373Z,21.76
2018-08-20T07:29:40.424Z,21.76
2018-08-20T07:30:40.488Z,21.75
2018-08-20T07:31:40.557Z,21.80
2018-08-20T07:32:40.625Z,21.83
2018-08-20T07:33:40.699Z,21.95
2018-08-20T07:34:40.778Z,21.98
2018-08-20T07:35:40.824Z,21.98
2018-08-20T07:36:40.889Z,21.98
2018-08-20T07:37:40.955Z,21.98
2018-08-20T07:38:41.033Z,21.98
2018-08-20T07:39:41.093Z,21.93
2018-08-20T07:40:41.157Z,21.91
2018-08-20T07:41:41.221Z,21.85
2018-08-20T07:42:41.285Z,21.93
2018-08-20T07:43:41.357Z,21.96
2018-08-20T07:44:41.425Z,22.02
2018-08-20T07:45:41.485Z,22.14
2018-08-20T07:46:41.549Z,22.06
2018-08-20T07:47:41.617Z,22.02
2018-08-20T07:48:41.689Z,22.17
2018-08-20T07:49:41.757Z,22.15
2018-08-20T07:50:41.853Z,22.17
2018-08-20T07:51:41.885Z,22.29
2018-08-20T07:52:41.961Z,22.25
2018-08-20T07:53:42.026Z,22.22
2018-08-20T07:54:42.090Z,22.30
2018-08-20T07:55:42.199Z,22.38
2018-08-20T07:56:42.217Z,22.39
2018-08-20T07:57:42.330Z,22.22
2018-08-20T07:58:42.498Z,22.30
2018-08-20T07:59:42.414Z,22.17
2018-08-20T08:00:42.482Z,22.18
2018-08-20T08:01:42.550Z,22.17
2018-08-20T08:02:42.614Z,22.18
2018-08-20T08:03:42.690Z,22.18
2018-08-20T08:04:42.757Z,22.23
2018-08-20T08:05:42.814Z,22.20
2018-08-20T08:06:42.882Z,22.15
2018-08-20T08:07:42.950Z,22.30
2018-08-20T08:08:43.098Z,22.26
2018-08-20T08:09:43.091Z,22.29
2018-08-20T08:10:43.147Z,22.38
2018-08-20T08:11:43.215Z,22.45
2018-08-20T08:12:43.283Z,22.36
2018-08-20T08:13:43.504Z,22.29
2018-08-20T08:14:43.415Z,22.30
2018-08-20T08:15:43.482Z,22.18
2018-08-20T08:16:43.547Z,22.17
2018-08-20T08:17:43.614Z,22.17
2018-08-20T08:18:43.694Z,22.02
2018-08-20T08:19:43.796Z,22.06
2018-08-20T08:20:43.815Z,21.88
2018-08-20T08:21:43.882Z,21.88
2018-08-20T08:22:43.947Z,21.80
2018-08-20T08:23:44.019Z,21.89
2018-08-20T08:24:44.088Z,21.77
2018-08-20T08:25:44.147Z,21.72
2018-08-20T08:26:44.211Z,21.60
2018-08-20T08:27:44.281Z,21.58
2018-08-20T08:28:44.351Z,21.54
2018-08-20T08:29:44.418Z,21.50
2018-08-20T08:30:44.479Z,21.46
2018-08-20T08:31:44.548Z,21.45
2018-08-20T08:32:44.619Z,21.46
2018-08-20T08:33:44.720Z,21.48
2018-08-20T08:34:44.751Z,21.46
2018-08-20T08:35:44.811Z,21.46
2018-08-20T08:36:44.896Z,21.37
2018-08-20T08:37:44.943Z,21.35
2018-08-20T08:38:45.019Z,21.36
2018-08-20T08:39:45.084Z,21.33
2018-08-20T08:40:45.144Z,21.27
2018-08-20T08:41:45.211Z,21.30
2018-08-20T08:42:45.276Z,21.29
2018-08-20T08:43:45.492Z,21.29
2018-08-20T08:44:45.408Z,21.27
2018-08-20T08:45:45.475Z,21.36
2018-08-20T08:46:45.535Z,21.39
2018-08-20T08:47:45.627Z,21.43
2018-08-20T08:48:45.680Z,21.48
2018-08-20T08:49:45.766Z,21.46
2018-08-20T08:50:45.807Z,21.42
2018-08-20T08:51:45.871Z,21.60
2018-08-20T08:52:45.940Z,21.61
2018-08-20T08:53:46.012Z,21.64
2018-08-20T08:54:46.080Z,21.57
2018-08-20T08:55:46.139Z,21.58
2018-08-20T08:56:46.204Z,21.54
2018-08-20T08:57:46.272Z,21.48
2018-08-20T08:58:46.352Z,21.48
2018-08-20T08:59:46.412Z,21.58
2018-08-20T09:00:46.510Z,21.55
2018-08-20T09:01:46.562Z,21.70
2018-08-20T09:02:46.608Z,21.70
2018-08-20T09:03:46.683Z,21.76
2018-08-20T09:04:46.744Z,21.82
2018-08-20T09:05:46.805Z,21.95
2018-08-20T09:06:46.869Z,22.02
2018-08-20T09:07:46.941Z,21.93
2018-08-20T09:08:47.008Z,22.14
2018-08-20T09:09:47.077Z,22.13
2018-08-20T09:10:47.142Z,22.15
2018-08-20T09:11:47.201Z,22.17
2018-08-20T09:12:47.269Z,22.07
2018-08-20T09:13:47.402Z,22.10
2018-08-20T09:14:47.401Z,22.13
2018-08-20T09:15:47.470Z,22.13
2018-08-20T09:16:47.537Z,21.99
2018-08-20T09:17:47.600Z,21.93
2018-08-20T09:18:47.677Z,22.02
2018-08-20T09:19:47.741Z,22.00
2018-08-20T09:20:47.802Z,22.00
2018-08-20T09:21:47.869Z,21.98
2018-08-20T09:22:47.933Z,22.04
2018-08-20T09:23:48.013Z,21.99
2018-08-20T09:24:48.078Z,22.14
2018-08-20T09:25:48.133Z,22.23
2018-08-20T09:26:48.201Z,22.28
2018-08-20T09:27:48.269Z,22.29
2018-08-20T09:28:48.341Z,22.30
2018-08-20T09:29:48.409Z,22.48
2018-08-20T09:30:48.469Z,22.45
2018-08-20T09:31:48.534Z,22.59
2018-08-20T09:32:48.601Z,22.57
2018-08-20T09:33:48.721Z,22.57
2018-08-20T09:34:48.746Z,22.68
2018-08-20T09:35:48.802Z,22.69
2018-08-20T09:36:48.870Z,22.63
2018-08-20T09:37:48.938Z,22.69
2018-08-20T09:38:49.014Z,22.73
2018-08-20T09:39:49.084Z,22.68
2018-08-20T09:40:49.138Z,22.63
2018-08-20T09:41:49.202Z,22.65
2018-08-20T09:42:49.275Z,22.59
2018-08-20T09:43:49.470Z,22.55
2018-08-20T09:44:49.410Z,22.59
2018-08-20T09:45:49.470Z,22.59
2018-08-20T09:46:49.538Z,22.55
2018-08-20T09:47:49.609Z,22.57
2018-08-20T09:48:49.678Z,22.66
2018-08-20T09:49:49.746Z,22.63
2018-08-20T09:50:49.806Z,22.70
2018-08-20T09:51:49.874Z,22.57
2018-08-20T09:52:49.942Z,22.51
2018-08-20T09:53:50.014Z,22.48
2018-08-20T09:54:50.082Z,22.32
2018-08-20T09:55:50.142Z,22.38
2018-08-20T09:56:50.206Z,22.35
2018-08-20T09:57:50.274Z,22.22
2018-08-20T09:58:50.346Z,22.15
2018-08-20T09:59:50.414Z,22.17
2018-08-20T10:00:50.474Z,22.18
2018-08-20T10:01:50.542Z,22.13
2018-08-20T10:02:50.606Z,22.25
2018-08-20T10:03:50.682Z,22.18
2018-08-20T10:04:50.747Z,22.28
2018-08-20T10:05:50.818Z,22.22
2018-08-20T10:06:50.875Z,22.23
2018-08-20T10:07:50.943Z,22.28
2018-08-20T10:08:51.022Z,22.20
2018-08-20T10:09:51.083Z,22.18
2018-08-20T10:10:51.143Z,22.15
2018-08-20T10:11:51.211Z,22.17
2018-08-20T10:12:51.275Z,22.20
2018-08-20T10:13:51.351Z,22.08
2018-08-20T10:14:51.416Z,22.08
2018-08-20T10:15:51.475Z,22.06
2018-08-20T10:16:51.543Z,22.02
2018-08-20T10:17:51.612Z,21.98
2018-08-20T10:18:51.683Z,21.95
2018-08-20T10:19:51.752Z,21.77
2018-08-20T10:20:51.812Z,21.89
2018-08-20T10:21:51.875Z,21.82
2018-08-20T10:22:51.949Z,21.73
2018-08-20T10:23:52.016Z,21.77
2018-08-20T10:24:52.084Z,21.92
2018-08-20T10:25:52.146Z,21.91
2018-08-20T10:26:52.208Z,21.95
2018-08-20T10:27:52.280Z,21.95
2018-08-20T10:28:52.360Z,22.00
2018-08-20T10:29:52.408Z,22.06
2018-08-20T10:30:52.476Z,22.11
2018-08-20T10:31:52.547Z,22.18
2018-08-20T10:32:52.608Z,22.17
2018-08-20T10:33:52.684Z,22.18
2018-08-20T10:34:52.748Z,22.28
2018-08-20T10:35:52.808Z,22.28
2018-08-20T10:36:52.876Z,22.28
2018-08-20T10:37:53.041Z,22.23
2018-08-20T10:38:53.016Z,22.23
2018-08-20T10:39:53.081Z,22.22
2018-08-20T10:40:53.144Z,22.23
2018-08-20T10:41:53.208Z,22.18
2018-08-20T10:42:53.277Z,22.29
2018-08-20T10:43:53.433Z,22.25
2018-08-20T10:44:53.408Z,22.43
2018-08-20T10:45:53.476Z,22.32
2018-08-20T10:46:53.543Z,22.45
2018-08-20T10:47:53.608Z,22.57
2018-08-20T10:48:53.680Z,22.68
2018-08-20T10:49:53.793Z,22.73
2018-08-20T10:50:53.813Z,22.91
2018-08-20T10:51:53.877Z,22.76
2018-08-20T10:52:53.946Z,22.75
2018-08-20T10:53:54.017Z,22.96
2018-08-20T10:54:54.080Z,22.88
2018-08-20T10:55:54.149Z,22.96
2018-08-20T10:56:54.212Z,22.85
2018-08-20T10:57:54.277Z,22.96
2018-08-20T10:58:54.433Z,23.08
2018-08-20T10:59:54.413Z,23.09
2018-08-20T11:00:54.478Z,23.08
2018-08-20T11:01:54.556Z,23.02
2018-08-20T11:02:54.613Z,22.99
2018-08-20T11:03:54.711Z,23.10
2018-08-20T11:04:54.753Z,23.18
2018-08-20T11:05:54.813Z,23.13
2018-08-20T11:06:54.877Z,23.32
2018-08-20T11:07:54.949Z,23.40
2018-08-20T11:08:55.023Z,23.54
2018-08-20T11:09:55.106Z,23.56
2018-08-20T11:10:55.212Z,23.65
2018-08-20T11:11:55.218Z,23.78
2018-08-20T11:12:55.286Z,23.86
2018-08-20T11:13:55.370Z,23.92
2018-08-20T11:14:55.417Z,23.99
2018-08-20T11:15:55.486Z,24.08
2018-08-20T11:16:55.554Z,24.05
2018-08-20T11:17:55.622Z,24.11
2018-08-20T11:18:55.694Z,24.01
2018-08-20T11:19:55.762Z,23.95
2018-08-20T11:20:55.822Z,23.88
2018-08-20T11:21:55.890Z,23.88
2018-08-20T11:22:55.962Z,23.86
2018-08-20T11:23:56.030Z,23.87
2018-08-20T11:24:56.099Z,23.86
2018-08-20T11:25:56.162Z,23.71
2018-08-20T11:26:56.252Z,23.80
2018-08-20T11:27:56.298Z,23.86
2018-08-20T11:28:56.371Z,23.99
2018-08-20T11:29:56.438Z,24.18
2018-08-20T11:30:56.500Z,24.24
2018-08-20T11:31:56.566Z,24.45
2018-08-20T11:32:56.635Z,24.57
2018-08-20T11:33:56.712Z,24.68
2018-08-20T11:34:56.779Z,24.76
2018-08-20T11:35:56.839Z,24.85
2018-08-20T11:36:56.909Z,24.93
2018-08-20T11:37:56.974Z,24.99
2018-08-20T11:38:57.051Z,24.98
2018-08-20T11:39:57.120Z,25.13
2018-08-20T11:40:57.179Z,24.91
2018-08-20T11:41:57.250Z,25.03
2018-08-20T11:42:57.318Z,25.04
2018-08-20T11:43:57.591Z,25.04
2018-08-20T11:44:57.451Z,25.16
2018-08-20T11:45:57.520Z,25.35
2018-08-20T11:46:57.587Z,25.36
2018-08-20T11:47:57.660Z,25.53
2018-08-20T11:48:57.756Z,25.54
2018-08-20T11:49:57.803Z,25.47
2018-08-20T11:50:57.859Z,25.59
2018-08-20T11:51:57.927Z,25.55
2018-08-20T11:52:57.995Z,25.59
2018-08-20T11:53:58.073Z,25.53
2018-08-20T11:54:58.142Z,25.75
2018-08-20T11:55:58.203Z,25.87
2018-08-20T11:56:58.271Z,26.09
2018-08-20T11:57:58.340Z,26.21
2018-08-20T11:58:58.450Z,26.41
2018-08-20T11:59:58.483Z,26.26
2018-08-20T12:00:58.591Z,26.29
2018-08-20T12:01:58.679Z,26.31
2018-08-20T12:02:58.684Z,26.36
2018-08-20T12:03:58.759Z,26.26
2018-08-20T12:04:58.831Z,26.41
2018-08-20T12:05:58.887Z,26.47
2018-08-20T12:06:58.999Z,26.38
2018-08-20T12:07:59.030Z,26.65
2018-08-20T12:08:59.259Z,26.59
2018-08-20T12:09:59.163Z,26.62
2018-08-20T12:10:59.240Z,26.38
2018-08-20T12:11:59.304Z,26.40
2018-08-20T12:12:59.375Z,26.45
2018-08-20T12:13:59.448Z,26.41
2018-08-20T12:14:59.519Z,26.60
2018-08-20T12:15:59.584Z,26.73
2018-08-20T12:16:59.648Z,26.90
2018-08-20T12:17:59.721Z,27.07
2018-08-20T12:18:59.792Z,27.05
2018-08-20T12:19:59.864Z,27.25
2018-08-20T12:20:59.924Z,27.21
2018-08-20T12:21:59.996Z,27.42
2018-08-20T12:23:00.085Z,27.32
2018-08-20T12:24:00.240Z,27.42
2018-08-20T12:25:00.208Z,27.27
2018-08-20T12:26:00.276Z,27.30
2018-08-20T12:27:00.340Z,27.26
2018-08-20T12:28:00.412Z,27.25
2018-08-20T12:29:00.492Z,27.20
2018-08-20T12:30:00.559Z,27.26
2018-08-20T12:31:00.683Z,27.12
2018-08-20T12:32:00.688Z,27.05
2018-08-20T12:33:00.762Z,27.14
2018-08-20T12:34:00.836Z,27.05
2018-08-20T12:35:00.904Z,27.22
2018-08-20T12:36:00.968Z,27.22
2018-08-20T12:37:01.041Z,27.27
2018-08-20T12:38:01.110Z,27.40
2018-08-20T12:39:01.349Z,27.65
2018-08-20T12:40:01.347Z,27.63
2018-08-20T12:41:01.321Z,27.54
2018-08-20T12:42:01.395Z,27.54
2018-08-20T12:43:01.461Z,27.11
2018-08-20T12:44:01.533Z,27.14
2018-08-20T12:45:01.606Z,27.27
2018-08-20T12:46:01.669Z,27.27
2018-08-20T12:47:01.736Z,27.22
2018-08-20T12:48:01.805Z,27.33
2018-08-20T12:49:01.881Z,27.33
2018-08-20T12:50:01.958Z,27.29
2018-08-20T12:51:02.017Z,27.27
2018-08-20T12:52:02.085Z,27.21
2018-08-20T12:53:02.212Z,27.21